Flight Track Log - Related Links

Times and Time Zones

All times are in EDT time to prevent confusion due to time zone crossing. See the EJA695 flight status page for this flight to view local times or setup timezone preferences in your user account.

Time Position Orientation Groundspeed Altitude Reporting Facility
EDT Latitude Longitude Course Direction KTS MPH feet Rate Location/Type
Fri 10:44:33 AM 34.4283 -119.8322 131° Southeast 149 171 900  Level Los Angeles Center
Fri 10:45:46 AM 34.3844 -119.7708 131° Southeast 206 237 3,500 2,444 Climbing Los Angeles Center
Fri 10:46:48 AM 34.3156 -119.7408 160° South 230 265 6,400 2,710 Climbing Los Angeles Center
Fri 10:47:50 AM 34.2431 -119.7019 156° South 272 313 9,100 2,419 Climbing Los Angeles Center
Fri 10:48:52 AM 34.1678 -119.6600 155° Southeast 291 335 11,400 2,371 Climbing Los Angeles Center
Fri 10:49:54 AM 34.1097 -119.5778 130° Southeast 319 367 14,000 2,444 Climbing Los Angeles Center
Fri 10:51:07 AM 34.0464 -119.4756 127° Southeast 318 366 16,900 2,311 Climbing Los Angeles Center
Fri 10:52:09 AM 33.9933 -119.3878 126° Southeast 326 375 19,200 2,256 Climbing Los Angeles Center
Fri 10:53:12 AM 33.9253 -119.2825 128° Southeast 334 384 21,600 1,968 Climbing Los Angeles Center
Fri 10:54:14 AM 33.8686 -119.1919 127° Southeast 339 390 23,300 1,355 Climbing Los Angeles Center
Fri 10:55:16 AM 33.8169 -119.0903 121° Southeast 359 413 24,400 1,073 Climbing Los Angeles Center
Fri 10:56:17 AM 33.8089 -118.9614 94° East 385 443 25,500 1,220 Climbing Los Angeles Center
Fri 10:57:19 AM 33.8014 -118.8053 93° East 392 451 26,900 1,016 Climbing Los Angeles Center
Fri 10:58:21 AM 33.7961 -118.7000 93° East 396 456 27,600 823 Climbing Los Angeles Center
Fri 10:59:23 AM 33.7872 -118.5386 94° East 402 463 28,600 919 Climbing Los Angeles Center
Fri 11:00:25 AM 33.7794 -118.4050 94° East 405 466 29,500 871 Climbing Los Angeles Center
Fri 11:01:27 AM 33.7711 -118.2689 94° East 408 470 30,400 1,065 Climbing Los Angeles Center
Fri 11:02:29 AM 33.7628 -118.1197 94° East 407 468 31,700 1,210 Climbing Los Angeles Center
Fri 11:03:31 AM 33.7547 -117.9878 94° East 399 459 32,900 629 Climbing Los Angeles Center
Fri 11:04:33 AM 33.7467 -117.8561 94° East 397 457 33,000 48 Climbing Los Angeles Center
Fri 11:05:35 AM 33.7378 -117.7219 95° East 403 464 33,000  Level Los Angeles Center
Fri 11:06:37 AM 33.7272 -117.5619 94° East 403 464 33,000  Level Los Angeles Center
Fri 11:07:52 AM 33.7186 -117.4289 94° East 402 463 33,000  Level Los Angeles Center
Fri 11:08:54 AM 33.7086 -117.2717 94° East 396 456 33,000  Level Los Angeles Center
Fri 11:09:56 AM 33.7000 -117.1419 95° East 393 452 33,000  Level Los Angeles Center
Fri 11:10:58 AM 33.6914 -117.0125 95° East 390 449 33,000  Level Los Angeles Center
Fri 11:12:00 AM 33.6750 -116.8847 99° East 391 450 33,000  Level Los Angeles Center
Fri 11:13:02 AM 33.6533 -116.7447 100° East 387 445 33,000  Level Los Angeles Center
Fri 11:14:05 AM 33.6333 -116.6172 101° East 388 447 33,000  Level Los Angeles Center
Fri 11:15:07 AM 33.6136 -116.4881 100° East 391 450 33,000  Level Los Angeles Center
Fri 11:16:09 AM 33.5900 -116.3322 100° East 394 453 33,000  Level Los Angeles Center
Fri 11:17:11 AM 33.5689 -116.2008 101° East 398 458 33,000  Level Los Angeles Center
Fri 11:18:13 AM 33.5481 -116.0703 101° East 398 458 33,000  Level Los Angeles Center
Fri 11:19:15 AM 33.5275 -115.9414 101° East 395 455 33,000  Level Los Angeles Center
Fri 11:20:17 AM 33.5053 -115.8117 102° East 396 456 33,000  Level Los Angeles Center
Fri 11:21:31 AM 33.4856 -115.6831 100° East 395 455 33,000  Level Los Angeles Center
Fri 11:22:34 AM 33.4597 -115.5289 101° East 393 452 33,000  Level Los Angeles Center
Fri 11:23:36 AM 33.4344 -115.3753 101° East 391 450 33,000  Level Los Angeles Center
Fri 11:24:38 AM 33.4125 -115.2469 102° East 393 452 33,000  Level Los Angeles Center
Fri 11:25:52 AM 33.3900 -115.1183 102° East 394 453 33,000  Level Los Angeles Center
Fri 11:27:07 AM 33.3647 -114.9656 101° East 392 451 33,000  Level Los Angeles Center
Fri 11:28:09 AM 33.3394 -114.8114 101° East 393 452 33,000  Level Los Angeles Center
Fri 11:29:11 AM 33.3133 -114.6600 102° East 388 447 33,000  Level Los Angeles Center
Fri 11:30:14 AM 33.2914 -114.5331 102° East 390 449 33,000  Level Los Angeles Center
Fri 11:31:16 AM 33.2697 -114.4067 102° East 389 448 33,000  Level Los Angeles Center
Fri 11:32:18 AM 33.2469 -114.2817 102° East 386 444 33,000  Level Los Angeles Center
Fri 11:33:16 AM 33.2297 -114.1636 100° East 384 442 33,000  Level Albuquerque Center
Fri 11:34:18 AM 33.2069 -114.0392 102° East 384 442 33,000  Level Albuquerque Center
Fri 11:35:20 AM 33.1853 -113.9142 102° East 384 442 33,000  Level Albuquerque Center
Fri 11:36:22 AM 33.1589 -113.7642 102° East 385 443 33,000 -484 Level Albuquerque Center
Fri 11:37:24 AM 33.1361 -113.6408 102° East 382 440 32,000 -968 Descending Albuquerque Center
Fri 11:38:26 AM 33.1131 -113.5161 102° East 383 441 31,000 -919 Descending Albuquerque Center
Fri 11:39:28 AM 33.0978 -113.3900 98° East 382 440 30,100 -1,065 Descending Albuquerque Center
Fri 11:40:30 AM 33.0956 -113.2603 91° East 385 443 28,800 -1,500 Descending Albuquerque Center
Fri 11:41:32 AM 33.0897 -113.1303 93° East 389 448 27,000 -1,597 Descending Albuquerque Center
Fri 11:42:34 AM 33.0678 -112.9769 100° East 388 447 25,500 -968 Descending Albuquerque Center
Fri 11:43:36 AM 33.0242 -112.8564 113° Southeast 389 448 25,000 -242 Descending Albuquerque Center
Fri 11:44:38 AM 32.9797 -112.7347 114° Southeast 395 455 25,000  Level Albuquerque Center
Fri 11:45:40 AM 32.9336 -112.6144 115° Southeast 397 457 25,000  Level Albuquerque Center
Fri 11:46:42 AM 32.8878 -112.4942 114° Southeast 398 458 25,000  Level Albuquerque Center
Fri 11:47:44 AM 32.8417 -112.3744 115° Southeast 398 458 25,000 -768 Level Albuquerque Center
Fri 11:48:47 AM 32.7967 -112.2558 114° Southeast 394 453 23,400 -1,776 Descending Albuquerque Center
Fri 11:49:49 AM 32.7422 -112.1189 115° Southeast 395 455 21,300 -1,887 Descending Albuquerque Center
Fri 11:50:51 AM 32.6983 -112.0058 115° Southeast 386 444 19,500 -1,742 Descending Albuquerque Center
Fri 11:51:53 AM 32.6544 -111.8919 115° Southeast 383 441 17,700 -1,694 Descending Albuquerque Center
Fri 11:52:55 AM 32.6103 -111.7800 115° Southeast 380 437 16,000 -1,824 Descending Albuquerque Center
Fri 11:53:35 AM 32.5739 -111.6892 115° Southeast 376 433 14,600 -1,632 Descending Albuquerque Center
Fri 11:55:00 AM 32.5033 -111.5536 122° Southeast 356 410 12,600 -1,397 Descending Albuquerque Center
Fri 11:56:01 AM 32.4544 -111.4617 122° Southeast 341 392 11,200 -1,357 Descending Albuquerque Center
Fri 11:56:55 AM 32.4094 -111.3869 125° Southeast 298 343 10,000 -1,210 Descending Albuquerque Center
Fri 11:58:05 AM 32.3664 -111.3031 121° Southeast 286 329 8,700 -1,172 Descending Albuquerque Center
Fri 11:59:03 AM 32.3172 -111.2197 125° Southeast 282 325 7,500 -1,220 Descending Albuquerque Center
Fri 12:00:03 PM 32.2750 -111.1456 124° Southeast 276 318 6,300 -1,043 Descending Albuquerque Center
Fri 12:00:58 PM 32.2375 -111.0850 126° Southeast 249 287 5,500 -771 Descending Albuquerque Center
Fri 12:01:52 PM 32.2033 -111.0414 133° Southeast 204 235 4,900 -835 Descending Albuquerque Center
Fri 12:02:53 PM 32.1700 -111.0025 135° Southeast 165 190 3,900 -793 Descending Albuquerque Center
Fri 12:03:53 PM 32.1433 -110.9744 138° Southeast 131 151 3,300 -600 Descending Albuquerque Center
Fri 12:05:00 PM 32.1161 -110.9410 140° Southeast  Level Estimated
Fri 12:12:00 PM 32.1161 -110.9410 140° Southeast  Level Estimated

Login

Don't have an account? Register now (free) for customized features, flight alerts, and more!